Terminal Aerodrome Forecast
Issued by NWS Cleveland, OH

Home | Current Version | Previous Version | Graphics & Text | Print | Product List | Glossary On
Versions: 1 2 3 4 5 6 7 8 9 10 11 12 13 14 15 16
000
FTUS41 KCLE 200532
TAFYNG
TAF
KYNG 200532Z 2006/2106 00000KT P6SM FEW250
     FM201200 VRB03KT 5SM BR SCT200
     FM201300 VRB03KT P6SM SCT200
     FM202000 25007KT P6SM -SHRA VCTS SCT045CB BKN080
     FM210000 26006KT 6SM -SHRA BR VCTS BKN060CB
     FM210300 25005KT P6SM BKN060
     FM210500 26005KT 4SM BR SCT045=

USA.gov is the U.S. government's official web portal to all federal, state and local government web resources and services.